• Join FlightAware (Why Join?)
  • Login
  • US Flag 
08:10PM EDT


 

Airport Tracker/Info


-or-


 

Live Flight TrackerFlight Track Log ✈ JZA8899 ✈ 24-Apr-2013 ✈ CYYR - CYHZ

Flight Track Log - Related Links

Times and Time Zones

All times are in EDT time to prevent confusion due to time zone crossing. See the JZA8899 flight status page for this flight to view local times or setup timezone preferences in your user account.

Time Position Orientation Groundspeed Altitude Reporting Facility
EDT Latitude Longitude Course Direction KTS MPH feet Rate Location/Type
11:19AM 53.3167 -60.4167 199° South 90 104 200  Level Gander Center
11:20AM 53.2833 -60.4667 222° Southwest 170 196 3,100 3,000 Climbing Gander Center
11:21AM 53.2500 -60.5333 230° Southwest 160 184 6,200 2,400 Climbing Gander Center
11:22AM 53.1833 -60.5500 189° South 220 253 7,900 2,400 Climbing Gander Center
11:23AM 52.9900 -60.4467 197° South  Level FlightAware Approximate
11:23AM 53.1167 -60.5833 197° South 250 288 11,100  Level Gander Center
11:24AM 52.8903 -60.5018 199° South  Level FlightAware Approximate
11:24AM 53.0500 -60.6167 197° South 260 299 13,600  Level Gander Center
11:25AM 52.9833 -60.6500 197° South 260 299 15,800 1,920 Climbing Gander Center
11:26AM 52.9000 -60.6667 187° South 280 322 17,500 1,500 Climbing Gander Center
11:27AM 52.8333 -60.7167 204° Southwest 290 334 18,700 1,680 Climbing Moncton Center
11:28AM 52.7333 -60.7500 191° South 310 357 20,800 1,740 Climbing Moncton Center
11:29AM 52.6667 -60.7833 197° South 310 357 22,200 1,320 Climbing Moncton Center
11:30AM 52.5667 -60.8167 191° South 320 368 23,500 1,260 Climbing Moncton Center
11:31AM 52.4833 -60.8500 194° South 330 380 24,800 1,200 Climbing Moncton Center
11:32AM 52.3833 -60.8833 192° South 330 380 26,000 1,020 Climbing Moncton Center
11:33AM 52.3000 -60.9167 194° South 340 391 26,900 900 Climbing Moncton Center
11:34AM 52.2000 -60.9500 192° South 350 403 27,900 780 Climbing Moncton Center
11:35AM 52.1000 -61.0000 197° South 360 414 28,500 600 Climbing Moncton Center
11:36AM 52.0000 -61.0500 197° South 360 414 29,100 660 Climbing Moncton Center
11:37AM 51.9000 -61.0833 192° South 370 426 29,900 660 Climbing Moncton Center
11:38AM 51.8000 -61.1167 192° South 370 426 30,500 600 Climbing Moncton Center
11:39AM 51.7000 -61.1500 192° South 380 437 31,100 540 Climbing Moncton Center
11:40AM 51.6000 -61.2167 202° Southwest 380 437 31,600 660 Climbing Moncton Center
11:41AM 51.5000 -61.2500 192° South 390 449 32,500 720 Climbing Moncton Center
11:42AM 51.4000 -61.2833 192° South 380 437 33,100 720 Climbing Moncton Center
11:43AM 51.3000 -61.3167 192° South 370 426 34,000 420 Climbing Moncton Center
11:44AM 51.2000 -61.3833 203° Southwest 370 426 34,000  Level Moncton Center
11:45AM 51.1000 -61.4167 192° South 370 426 34,000  Level Moncton Center
11:46AM 51.0000 -61.4500 192° South 370 426 34,000  Level Moncton Center
11:47AM 50.9000 -61.4833 192° South 370 426 34,000  Level Moncton Center
11:48AM 50.8000 -61.5333 198° South 370 426 34,000  Level Moncton Center
11:49AM 50.6833 -61.5667 190° South 380 437 34,000  Level Moncton Center
11:50AM 50.6000 -61.6000 194° South 360 414 34,000  Level Moncton Center
11:51AM 50.4833 -61.6333 190° South 370 426 34,000  Level Moncton Center
11:52AM 50.4000 -61.7000 207° Southwest 370 426 34,000  Level Moncton Center
11:53AM 50.2833 -61.7167 185° South 400 460 34,000  Level Moncton Center
11:54AM 50.1833 -61.7500 192° South 370 426 34,000  Level Moncton Center
11:55AM 50.0833 -61.7833 192° South 370 426 34,000 -600 Level Moncton Center
11:56AM 49.9833 -61.8167 192° South 380 437 32,900 -1,020 Descending Moncton Center
11:57AM 49.8667 -61.8833 200° South 420 483 32,000 -480 Descending Moncton Center
11:58AM 49.7500 -61.9167 190° South 430 495 32,000 -720 Level Moncton Center
11:59AM 49.6333 -61.9667 196° South 430 495 30,600 -1,020 Descending Moncton Center
12:00PM 49.5167 -62.0000 191° South 460 529 30,000 -300 Descending Moncton Center
12:01PM 49.4000 -62.0500 196° South 420 483 30,000  Level Moncton Center
12:02PM 49.2833 -62.0833 191° South 410 472 30,000  Level Moncton Center
12:03PM 49.1667 -62.1167 191° South 400 460 30,000  Level Moncton Center
12:04PM 49.0667 -62.1667 198° South 400 460 30,000  Level Moncton Center
12:05PM 48.9667 -62.2000 192° South 390 449 30,000  Level Moncton Center
12:06PM 48.8667 -62.2333 192° South 380 437 30,000  Level Moncton Center
12:07PM 48.7500 -62.2667 191° South 370 426 30,000  Level Moncton Center
12:08PM 48.6667 -62.3167 202° Southwest 370 426 30,000  Level Moncton Center
12:09PM 48.5667 -62.3500 192° South 360 414 30,000  Level Moncton Center
12:10PM 48.4667 -62.3833 192° South 360 414 30,000  Level Moncton Center
12:11PM 48.3667 -62.4000 186° South 360 414 30,000  Level Moncton Center
12:12PM 48.2667 -62.4667 204° Southwest 360 414 30,000  Level Moncton Center
12:13PM 48.1667 -62.4833 186° South 360 414 30,000  Level Moncton Center
12:14PM 48.0667 -62.5167 193° South 370 426 30,000  Level Moncton Center
12:15PM 47.9667 -62.5500 193° South 370 426 30,000  Level Moncton Center
12:16PM 47.8667 -62.5833 193° South 370 426 30,000  Level Moncton Center
12:17PM 47.7667 -62.6333 199° South 380 437 30,000  Level Moncton Center
12:18PM 47.6500 -62.6500 185° South 380 437 30,000  Level Moncton Center
12:19PM 47.5500 -62.6833 193° South 380 437 30,000  Level Moncton Center
12:21PM 47.3500 -62.7667 196° South 380 437 30,000  Level Moncton Center
12:22PM 47.2500 -62.8000 193° South 380 437 30,000  Level Moncton Center
12:23PM 47.1333 -62.8167 186° South 380 437 30,000  Level Moncton Center
12:24PM 47.0333 -62.8500 193° South 380 437 30,000  Level Moncton Center
12:25PM 46.9333 -62.9000 199° South 380 437 30,000 -120 Level Moncton Center
12:26PM 46.8333 -62.9333 193° South 380 437 29,800 -360 Descending Moncton Center
12:27PM 46.7167 -62.9500 186° South 390 449 29,300 -540 Descending Moncton Center
12:28PM 46.6167 -63.0000 199° South 400 460 28,800 -540 Descending Moncton Center
12:29PM 46.5000 -63.0333 191° South 410 472 28,300 -540 Descending Moncton Center
12:30PM 46.3833 -63.0667 191° South 410 472 27,800 -540 Descending Moncton Center
12:31PM 46.2667 -63.1167 197° South 410 472 27,300 -540 Descending Moncton Center
12:32PM 46.1500 -63.1333 186° South 420 483 26,800 -540 Descending Moncton Center
12:33PM 46.0333 -63.1667 191° South 420 483 26,300 -900 Descending Moncton Center
12:34PM 45.9333 -63.1667 180° South 420 483 25,100 -2,220 Descending Moncton Center
12:35PM 45.8167 -63.2000 191° South 410 472 21,900 -3,060 Descending Moncton Center
12:36PM 45.7167 -63.2167 187° South 390 449 19,000 -2,940 Descending Moncton Center
12:37PM 45.6000 -63.2500 191° South 370 426 16,100 -2,940 Descending Moncton Center
12:38PM 45.5167 -63.2500 180° South 340 391 13,200 -2,460 Descending Moncton Center
12:39PM 45.4333 -63.2833 196° South 310 357 11,200 -1,740 Descending Moncton Center
12:40PM 45.3667 -63.2833 180° South 260 299 9,800 -1,560 Descending Moncton Center
12:41PM 45.3000 -63.2833 180° South 240 276 8,100 -1,800 Descending Moncton Center
12:42PM 45.2333 -63.3000 190° South 230 265 6,200 -1,320 Descending Moncton Center
12:43PM 45.1833 -63.3000 180° South 200 230 5,500 -1,020 Descending Moncton Center
12:44PM 45.1333 -63.3000 180° South 180 207 4,200 -1,200 Descending Moncton Center
12:45PM 45.0833 -63.3000 180° South 170 196 3,100 -600 Descending Moncton Center
12:46PM 45.0333 -63.3333 205° Southwest 160 184 3,000 -60 Descending Moncton Center
12:47PM 45.0000 -63.3500 199° South 150 173 3,000  Level Moncton Center
12:48PM 44.9667 -63.3833 215° Southwest 140 161 3,000 -360 Level Moncton Center
12:49PM 44.9500 -63.4333 245° Southwest 120 138 2,300 -600 Descending Moncton Center
12:50PM 44.9167 -63.4500 199° South 110 127 1,800 -540 Descending Moncton Center